Time;durP1;ratioP1;P1;durP2;ratioP2;P2;SDS_P1;SDS_P2;PMS_P1;PMS_P2;Temp;Humidity;BMP_temperature;BMP_pressure;BME280_temperature;BME280_humidity;BME280_pressure;Samples;Min_cycle;Max_cycle;Signal;HPM_P1;HPM_P2
2022/08/09 00:00:07;;;;;;;;;;;25.50;45.40;;;;;;4880393;29;19912;-70
2022/08/09 00:02:32;;;;;;;;;;;25.50;45.60;;;;;;4880255;29;19994;-70
2022/08/09 00:04:58;;;;;;;;;;;25.50;45.60;;;;;;4878935;29;20003;-71
2022/08/09 00:07:24;;;;;;;;;;;25.60;45.40;;;;;;4880389;29;19935;-71
2022/08/09 00:09:49;;;;;;;;;;;25.40;45.50;;;;;;4880284;29;19916;-72
2022/08/09 00:12:15;;;;;;;;;;;25.40;46.00;;;;;;4880165;29;20386;-69
2022/08/09 00:14:40;;;;;;;;;;;25.30;46.10;;;;;;4880251;29;19971;-71
2022/08/09 00:17:06;;;;;;;;;;;25.30;46.20;;;;;;4878958;29;19911;-70
2022/08/09 00:19:32;;;;;;;;;;;25.20;46.40;;;;;;4879974;29;19916;-71
2022/08/09 00:21:57;;;;;;;;;;;25.20;46.50;;;;;;4878938;29;19916;-71
2022/08/09 00:24:24;;;;;;;;;;;25.20;46.50;;;;;;4880013;29;19912;-72
2022/08/09 00:26:50;;;;;;;;;;;25.20;46.70;;;;;;4879947;29;20055;-70
2022/08/09 00:29:15;;;;;;;;;;;25.20;46.80;;;;;;4869889;29;20010;-71
2022/08/09 00:31:41;;;;;;;;;;;25.10;46.80;;;;;;4879785;29;20041;-71
2022/08/09 00:34:06;;;;;;;;;;;25.10;47.00;;;;;;4880266;29;19916;-71
2022/08/09 00:36:32;;;;;;;;;;;25.10;47.10;;;;;;4878477;29;19939;-71
2022/08/09 00:38:57;;;;;;;;;;;25.10;47.20;;;;;;4879930;29;20390;-70
2022/08/09 00:41:23;;;;;;;;;;;25.10;47.30;;;;;;4879800;29;19935;-71
2022/08/09 00:43:49;;;;;;;;;;;25.10;47.40;;;;;;4878450;29;19916;-70
2022/08/09 00:46:15;;;;;;;;;;;25.00;47.50;;;;;;4879644;29;20281;-71
2022/08/09 00:48:41;;;;;;;;;;;25.10;47.60;;;;;;4878343;29;19922;-70
2022/08/09 00:51:06;;;;;;;;;;;25.00;47.60;;;;;;4879859;29;19924;-70
2022/08/09 00:53:34;;;;;;;;;;;25.00;47.80;;;;;;4879467;29;20273;-71
2022/08/09 00:56:00;;;;;;;;;;;25.00;47.80;;;;;;4879566;29;19912;-71
2022/08/09 00:58:25;;;;;;;;;;;25.00;47.90;;;;;;4870070;29;19920;-72
2022/08/09 01:00:52;;;;;;;;;;;25.00;47.90;;;;;;4879445;29;19959;-72
2022/08/09 01:03:36;;;;;;;;;;;25.00;48.10;;;;;;4879287;29;19968;-70
2022/08/09 01:06:08;;;;;;;;;;;24.90;48.10;;;;;;4878099;29;20369;-71
2022/08/09 01:08:39;;;;;;;;;;;24.90;48.20;;;;;;4879335;29;19971;-70
2022/08/09 01:11:17;;;;;;;;;;;24.90;48.20;;;;;;4877881;29;19924;-71
2022/08/09 01:13:49;;;;;;;;;;;24.90;48.20;;;;;;4879088;29;19916;-71
2022/08/09 01:16:16;;;;;;;;;;;24.90;48.20;;;;;;4879294;29;19915;-70
2022/08/09 01:18:44;;;;;;;;;;;24.90;48.40;;;;;;4879169;29;19912;-70
2022/08/09 01:21:28;;;;;;;;;;;24.80;48.70;;;;;;4877716;29;19919;-71
2022/08/09 01:23:59;;;;;;;;;;;24.80;48.50;;;;;;4879087;29;19935;-70
2022/08/09 01:26:35;;;;;;;;;;;24.90;48.50;;;;;;4877862;29;19912;-70
2022/08/09 01:29:01;;;;;;;;;;;24.80;48.40;;;;;;4868779;29;19935;-70
2022/08/09 01:31:27;;;;;;;;;;;24.80;48.50;;;;;;4878667;29;19927;-71
2022/08/09 01:33:55;;;;;;;;;;;24.80;48.60;;;;;;4878987;29;19912;-72
2022/08/09 01:36:23;;;;;;;;;;;24.80;48.80;;;;;;4878472;29;19911;-71
2022/08/09 01:38:49;;;;;;;;;;;24.70;48.60;;;;;;4878823;29;19923;-71
2022/08/09 01:41:17;;;;;;;;;;;24.70;48.00;;;;;;4878679;29;19968;-70
2022/08/09 01:43:50;;;;;;;;;;;24.60;48.00;;;;;;4878674;29;19955;-71
2022/08/09 01:46:17;;;;;;;;;;;24.70;47.50;;;;;;4878629;29;19922;-72
2022/08/09 01:48:45;;;;;;;;;;;24.70;47.00;;;;;;4878539;29;19967;-71
2022/08/09 01:51:12;;;;;;;;;;;24.70;46.50;;;;;;4878424;29;19928;-71
2022/08/09 01:53:39;;;;;;;;;;;24.80;46.20;;;;;;4878425;29;19963;-71
2022/08/09 01:56:05;;;;;;;;;;;24.70;46.00;;;;;;4878598;29;20010;-72
2022/08/09 01:58:31;;;;;;;;;;;24.60;45.70;;;;;;4869706;29;19911;-71
2022/08/09 02:00:57;;;;;;;;;;;24.60;45.30;;;;;;4878506;29;20393;-70
2022/08/09 02:03:24;;;;;;;;;;;24.60;45.20;;;;;;4878364;29;20611;-72
2022/08/09 02:05:52;;;;;;;;;;;24.50;45.40;;;;;;4878413;29;19916;-72
2022/08/09 02:08:19;;;;;;;;;;;24.40;45.40;;;;;;4878399;29;19919;-70
2022/08/09 02:10:46;;;;;;;;;;;24.40;45.40;;;;;;4878273;29;20007;-72
2022/08/09 02:13:13;;;;;;;;;;;24.40;45.30;;;;;;4878362;29;19923;-71
2022/08/09 02:15:42;;;;;;;;;;;24.40;45.30;;;;;;4878184;29;20006;-71
2022/08/09 02:18:07;;;;;;;;;;;24.40;45.30;;;;;;4878282;29;19926;-71
2022/08/09 02:20:37;;;;;;;;;;;24.30;45.30;;;;;;4878319;29;19916;-71
2022/08/09 02:23:06;;;;;;;;;;;24.30;45.30;;;;;;4876947;29;19915;-70
2022/08/09 02:25:34;;;;;;;;;;;24.40;45.20;;;;;;4878156;29;19916;-72
2022/08/09 02:28:12;;;;;;;;;;;24.30;45.30;;;;;;4869766;29;19954;-71
2022/08/09 02:30:43;;;;;;;;;;;24.30;46.00;;;;;;4878049;29;19971;-71
2022/08/09 02:33:12;;;;;;;;;;;24.30;45.40;;;;;;4876803;29;19916;-70
2022/08/09 02:35:39;;;;;;;;;;;24.30;45.40;;;;;;4878485;29;20366;-72
2022/08/09 02:38:05;;;;;;;;;;;24.30;45.50;;;;;;4878166;29;19912;-71
2022/08/09 02:40:31;;;;;;;;;;;24.20;45.60;;;;;;4878604;29;19923;-72
2022/08/09 02:42:57;;;;;;;;;;;24.10;45.80;;;;;;4877806;29;19922;-70
2022/08/09 02:45:28;;;;;;;;;;;24.20;45.90;;;;;;4878124;29;19923;-71
2022/08/09 02:47:55;;;;;;;;;;;24.20;45.70;;;;;;4877968;29;20036;-70
2022/08/09 02:50:26;;;;;;;;;;;24.20;45.80;;;;;;4877923;29;19959;-72
2022/08/09 02:53:02;;;;;;;;;;;24.30;45.60;;;;;;4877708;29;19923;-71
2022/08/09 02:55:29;;;;;;;;;;;24.20;45.60;;;;;;4877889;29;19916;-71
2022/08/09 02:57:56;;;;;;;;;;;24.20;45.70;;;;;;4872210;29;20395;-71
2022/08/09 03:00:22;;;;;;;;;;;24.30;45.70;;;;;;4877665;29;20448;-71
2022/08/09 03:02:50;;;;;;;;;;;24.20;45.60;;;;;;4877892;29;19965;-70
2022/08/09 03:05:16;;;;;;;;;;;24.40;45.30;;;;;;4877712;29;19918;-71
2022/08/09 03:07:42;;;;;;;;;;;24.50;45.20;;;;;;4878280;29;20002;-72
2022/08/09 03:10:08;;;;;;;;;;;24.40;45.40;;;;;;4876432;29;20296;-70
2022/08/09 03:12:35;;;;;;;;;;;24.40;45.50;;;;;;4877645;29;19915;-70
2022/08/09 03:15:01;;;;;;;;;;;24.40;45.20;;;;;;4876622;29;20380;-72
2022/08/09 03:17:27;;;;;;;;;;;24.50;45.20;;;;;;4877719;29;19912;-71
2022/08/09 03:19:54;;;;;;;;;;;24.30;45.50;;;;;;4878048;29;19978;-71
2022/08/09 03:22:20;;;;;;;;;;;24.30;45.70;;;;;;4879634;29;19912;-70
2022/08/09 03:24:45;;;;;;;;;;;24.30;45.90;;;;;;4880911;29;20389;-71
2022/08/09 03:27:11;;;;;;;;;;;24.30;46.00;;;;;;4871729;29;19912;-70
2022/08/09 03:29:37;;;;;;;;;;;24.20;46.00;;;;;;4880834;29;19926;-70
2022/08/09 03:32:04;;;;;;;;;;;24.20;46.20;;;;;;4880836;29;19920;-71
2022/08/09 03:34:29;;;;;;;;;;;24.20;46.20;;;;;;4880862;29;19959;-71
2022/08/09 03:36:56;;;;;;;;;;;24.30;46.00;;;;;;4881070;29;19943;-69
2022/08/09 03:39:24;;;;;;;;;;;24.30;46.20;;;;;;4880073;29;20010;-71
2022/08/09 03:41:50;;;;;;;;;;;24.10;46.50;;;;;;4881310;29;19915;-70
2022/08/09 03:44:15;;;;;;;;;;;24.10;46.50;;;;;;4880934;29;19911;-71
2022/08/09 03:46:41;;;;;;;;;;;24.30;46.40;;;;;;4880660;29;20391;-70
2022/08/09 03:49:07;;;;;;;;;;;24.40;46.10;;;;;;4880620;29;19920;-71
2022/08/09 03:51:33;;;;;;;;;;;24.30;46.20;;;;;;4880261;29;19928;-69
2022/08/09 03:53:59;;;;;;;;;;;24.20;46.40;;;;;;4880555;29;19912;-71
2022/08/09 03:56:25;;;;;;;;;;;24.30;46.40;;;;;;4880519;29;19967;-71
2022/08/09 03:58:50;;;;;;;;;;;24.10;46.60;;;;;;4872868;29;19954;-72
2022/08/09 04:01:16;;;;;;;;;;;24.10;46.70;;;;;;4880454;29;20068;-71
2022/08/09 04:03:42;;;;;;;;;;;24.00;46.90;;;;;;4880104;29;19918;-73
2022/08/09 04:06:08;;;;;;;;;;;24.00;47.30;;;;;;4880485;29;19923;-72
2022/08/09 04:08:33;;;;;;;;;;;24.10;46.90;;;;;;4880261;29;19922;-72
2022/08/09 04:10:59;;;;;;;;;;;24.10;47.00;;;;;;4880217;29;20002;-73
2022/08/09 04:13:25;;;;;;;;;;;23.90;47.00;;;;;;4880348;29;19944;-72
2022/08/09 04:15:50;;;;;;;;;;;24.00;47.30;;;;;;4880108;29;19960;-72
2022/08/09 04:18:16;;;;;;;;;;;24.10;47.10;;;;;;4880206;29;19923;-72
2022/08/09 04:20:41;;;;;;;;;;;24.10;47.20;;;;;;4878740;29;20372;-72
2022/08/09 04:23:07;;;;;;;;;;;24.20;47.00;;;;;;4879898;29;20018;-72
2022/08/09 04:25:33;;;;;;;;;;;24.30;46.60;;;;;;4879955;29;20018;-72
2022/08/09 04:27:59;;;;;;;;;;;24.20;46.50;;;;;;4870342;29;19912;-72
2022/08/09 04:30:24;;;;;;;;;;;24.20;46.50;;;;;;4879883;29;19969;-72
2022/08/09 04:32:50;;;;;;;;;;;24.20;46.40;;;;;;4878581;29;19926;-72
2022/08/09 04:35:16;;;;;;;;;;;24.20;46.50;;;;;;4879827;29;20011;-72
2022/08/09 04:37:41;;;;;;;;;;;24.10;46.00;;;;;;4879696;29;19955;-71
2022/08/09 04:40:07;;;;;;;;;;;24.20;45.70;;;;;;4878372;29;20376;-71
2022/08/09 04:42:33;;;;;;;;;;;24.20;45.60;;;;;;4879867;29;19916;-72
2022/08/09 04:44:59;;;;;;;;;;;24.20;45.80;;;;;;4879733;29;20401;-71
2022/08/09 04:47:26;;;;;;;;;;;24.20;45.80;;;;;;4879873;29;19947;-72
2022/08/09 04:49:51;;;;;;;;;;;24.20;45.80;;;;;;4879538;29;19912;-73
2022/08/09 04:52:17;;;;;;;;;;;24.00;46.10;;;;;;4879213;29;19931;-73
2022/08/09 04:54:43;;;;;;;;;;;24.00;46.30;;;;;;4879509;29;19919;-71
2022/08/09 04:57:09;;;;;;;;;;;24.00;46.00;;;;;;4870146;29;20007;-72
2022/08/09 04:59:35;;;;;;;;;;;24.00;46.00;;;;;;4878105;29;20324;-72
2022/08/09 05:02:01;;;;;;;;;;;24.00;46.00;;;;;;4879304;29;20059;-73
2022/08/09 05:04:26;;;;;;;;;;;24.00;45.90;;;;;;4879350;29;19916;-73
2022/08/09 05:06:52;;;;;;;;;;;24.10;45.70;;;;;;4879068;29;19922;-72
2022/08/09 05:09:17;;;;;;;;;;;24.00;46.10;;;;;;4879194;29;19916;-73
2022/08/09 05:11:43;;;;;;;;;;;24.00;45.70;;;;;;4879058;29;19972;-72
2022/08/09 05:14:08;;;;;;;;;;;24.00;45.90;;;;;;4879283;29;19912;-72
2022/08/09 05:16:34;;;;;;;;;;;24.10;45.60;;;;;;4878928;29;19991;-71
2022/08/09 05:19:00;;;;;;;;;;;24.10;45.60;;;;;;4879270;29;19915;-73
2022/08/09 05:21:26;;;;;;;;;;;24.20;45.70;;;;;;4879337;29;19960;-72
2022/08/09 05:23:52;;;;;;;;;;;24.30;45.40;;;;;;4879186;29;19947;-71
2022/08/09 05:26:18;;;;;;;;;;;24.30;44.90;;;;;;4878883;29;20009;-72
2022/08/09 05:28:43;;;;;;;;;;;24.30;45.30;;;;;;4870542;29;19999;-74
2022/08/09 05:31:09;;;;;;;;;;;24.40;44.80;;;;;;4878855;29;19930;-71
2022/08/09 05:33:34;;;;;;;;;;;24.40;44.70;;;;;;4878930;29;20007;-73
2022/08/09 05:36:00;;;;;;;;;;;24.30;45.00;;;;;;4878684;29;19939;-72
2022/08/09 05:38:26;;;;;;;;;;;24.30;44.80;;;;;;4878941;29;19923;-73
2022/08/09 05:40:52;;;;;;;;;;;24.40;45.10;;;;;;4878838;29;19912;-72
2022/08/09 05:43:19;;;;;;;;;;;24.50;44.50;;;;;;4879140;29;20003;-69
2022/08/09 05:45:45;;;;;;;;;;;24.60;44.50;;;;;;4878901;29;19967;-71
2022/08/09 05:48:10;;;;;;;;;;;24.60;45.00;;;;;;4879152;29;19911;-71
2022/08/09 05:50:37;;;;;;;;;;;24.60;44.50;;;;;;4878420;29;19920;-71
2022/08/09 05:53:03;;;;;;;;;;;24.60;44.30;;;;;;4878482;29;19959;-72
2022/08/09 05:55:29;;;;;;;;;;;24.60;44.20;;;;;;4878737;29;19962;-69
2022/08/09 05:57:54;;;;;;;;;;;24.60;45.00;;;;;;4867340;29;20377;-69
2022/08/09 06:00:20;;;;;;;;;;;24.80;44.50;;;;;;4878397;29;19912;-69
2022/08/09 06:02:45;;;;;;;;;;;25.20;43.60;;;;;;4878474;29;19922;-67
2022/08/09 06:05:11;;;;;;;;;;;25.50;43.00;;;;;;4878474;29;19911;-71
2022/08/09 06:07:37;;;;;;;;;;;25.70;42.40;;;;;;4878607;29;19999;-76
2022/08/09 06:10:03;;;;;;;;;;;25.90;41.90;;;;;;4878867;29;20067;-68
2022/08/09 06:12:28;;;;;;;;;;;26.10;41.70;;;;;;4878351;29;20412;-68
2022/08/09 06:14:54;;;;;;;;;;;26.20;41.00;;;;;;4878770;29;19912;-67
2022/08/09 06:17:19;;;;;;;;;;;26.30;41.20;;;;;;4878091;29;19972;-68
2022/08/09 06:19:45;;;;;;;;;;;26.30;40.60;;;;;;4878284;29;19912;-68
2022/08/09 06:22:11;;;;;;;;;;;26.40;40.50;;;;;;4878245;29;20080;-68
2022/08/09 06:24:36;;;;;;;;;;;26.50;39.90;;;;;;4878269;29;20379;-69
2022/08/09 06:27:02;;;;;;;;;;;26.60;40.20;;;;;;4878339;29;20318;-68
2022/08/09 06:29:27;;;;;;;;;;;26.80;39.50;;;;;;4867521;29;19916;-68
2022/08/09 06:31:53;;;;;;;;;;;26.80;38.90;;;;;;4878151;29;19958;-69
2022/08/09 06:34:19;;;;;;;;;;;26.80;39.40;;;;;;4878211;29;19968;-69
2022/08/09 06:36:45;;;;;;;;;;;26.80;39.30;;;;;;4878202;29;19912;-69
2022/08/09 06:39:11;;;;;;;;;;;26.70;39.70;;;;;;4878116;29;19992;-69
2022/08/09 06:41:38;;;;;;;;;;;26.80;39.40;;;;;;4878044;29;20343;-69
2022/08/09 06:44:03;;;;;;;;;;;26.90;39.40;;;;;;4878233;29;20037;-68
2022/08/09 06:46:30;;;;;;;;;;;27.00;39.30;;;;;;4878030;29;20312;-68
2022/08/09 06:48:55;;;;;;;;;;;27.00;39.10;;;;;;4878034;29;20007;-70
2022/08/09 06:51:21;;;;;;;;;;;27.20;38.90;;;;;;4877990;29;20023;-66
2022/08/09 06:53:46;;;;;;;;;;;27.20;39.00;;;;;;4878034;29;19916;-68
2022/08/09 06:56:12;;;;;;;;;;;27.30;39.10;;;;;;4878320;29;19926;-72
2022/08/09 06:58:38;;;;;;;;;;;27.40;38.70;;;;;;4871154;29;19919;-70
2022/08/09 07:01:04;;;;;;;;;;;27.60;38.50;;;;;;4881688;29;19916;-68
2022/08/09 07:03:32;;;;;;;;;;;27.70;38.20;;;;;;4881380;29;19994;-70
2022/08/09 07:05:58;;;;;;;;;;;27.80;38.10;;;;;;4881445;29;19916;-68
2022/08/09 07:08:23;;;;;;;;;;;27.70;37.90;;;;;;4881747;29;20055;-70
2022/08/09 07:10:50;;;;;;;;;;;27.70;38.00;;;;;;4881249;29;19920;-69
2022/08/09 07:13:15;;;;;;;;;;;27.90;38.20;;;;;;4881327;29;19926;-76
2022/08/09 07:15:41;;;;;;;;;;;28.00;37.80;;;;;;4881341;29;19913;-74
2022/08/09 07:18:06;;;;;;;;;;;28.00;37.80;;;;;;4881343;29;19919;-70
2022/08/09 07:20:32;;;;;;;;;;;28.20;37.40;;;;;;4881464;29;20280;-64
2022/08/09 07:22:58;;;;;;;;;;;28.30;37.20;;;;;;4880752;29;19926;-62
2022/08/09 07:25:23;;;;;;;;;;;28.40;37.10;;;;;;4880047;29;19912;-62
2022/08/09 07:27:49;;;;;;;;;;;28.60;36.80;;;;;;4869456;29;19920;-62
2022/08/09 07:30:14;;;;;;;;;;;28.60;36.30;;;;;;4881484;29;19919;-64
2022/08/09 07:32:40;;;;;;;;;;;28.70;36.10;;;;;;4880725;29;19920;-64
2022/08/09 07:35:10;;;;;;;;;;;28.80;35.70;;;;;;4880921;29;20373;-63
2022/08/09 07:37:36;;;;;;;;;;;28.80;35.50;;;;;;4880930;29;19963;-64
2022/08/09 07:40:01;;;;;;;;;;;28.90;35.50;;;;;;4880469;29;20355;-64
2022/08/09 07:42:27;;;;;;;;;;;28.90;35.60;;;;;;4880587;29;20067;-64
2022/08/09 07:44:52;;;;;;;;;;;29.10;35.20;;;;;;4880417;29;20377;-63
2022/08/09 07:47:18;;;;;;;;;;;28.90;34.90;;;;;;4880321;29;19920;-64
2022/08/09 07:49:44;;;;;;;;;;;29.00;35.40;;;;;;4880306;29;19919;-64
2022/08/09 07:52:10;;;;;;;;;;;29.10;35.10;;;;;;4880158;29;19972;-63
2022/08/09 07:54:36;;;;;;;;;;;28.90;35.00;;;;;;4880229;29;19948;-63
2022/08/09 07:57:03;;;;;;;;;;;28.90;35.10;;;;;;4880093;29;20292;-67
2022/08/09 07:59:28;;;;;;;;;;;29.00;35.30;;;;;;4868378;29;19920;-66
2022/08/09 08:01:54;;;;;;;;;;;29.00;35.00;;;;;;4879828;29;19922;-70
2022/08/09 08:04:20;;;;;;;;;;;28.90;34.50;;;;;;4880425;29;19912;-70
2022/08/09 08:06:46;;;;;;;;;;;28.70;34.60;;;;;;4880096;29;20281;-67
2022/08/09 08:09:12;;;;;;;;;;;28.50;35.20;;;;;;4879601;29;19916;-68
2022/08/09 08:11:37;;;;;;;;;;;28.40;35.70;;;;;;4879740;29;19938;-65
2022/08/09 08:14:03;;;;;;;;;;;28.60;35.40;;;;;;4879938;29;20269;-69
2022/08/09 08:16:30;;;;;;;;;;;28.70;35.20;;;;;;4879563;29;19911;-68
2022/08/09 08:18:56;;;;;;;;;;;28.90;35.10;;;;;;4880093;29;19916;-65
2022/08/09 08:21:22;;;;;;;;;;;28.80;35.20;;;;;;4879582;29;19912;-67
2022/08/09 08:23:48;;;;;;;;;;;28.70;35.20;;;;;;4879340;29;19920;-70
2022/08/09 08:26:13;;;;;;;;;;;29.00;35.90;;;;;;4879252;29;19951;-68
2022/08/09 08:28:39;;;;;;;;;;;29.00;35.00;;;;;;4868760;29;19947;-69
2022/08/09 08:31:04;;;;;;;;;;;29.10;35.20;;;;;;4879987;29;19919;-67
2022/08/09 08:33:30;;;;;;;;;;;29.20;35.20;;;;;;4879967;29;19915;-68
2022/08/09 08:35:56;;;;;;;;;;;29.20;34.50;;;;;;4879832;29;20365;-68
2022/08/09 08:38:21;;;;;;;;;;;29.20;34.60;;;;;;4879920;29;20002;-65
2022/08/09 08:40:47;;;;;;;;;;;29.30;35.30;;;;;;4879152;29;19966;-67
2022/08/09 08:43:13;;;;;;;;;;;29.30;35.20;;;;;;4879473;29;19915;-67
2022/08/09 08:45:48;;;;;;;;;;;29.50;35.00;;;;;;4879527;29;19919;-65
2022/08/09 08:48:13;;;;;;;;;;;29.40;34.20;;;;;;4879866;29;19912;-66
2022/08/09 08:50:39;;;;;;;;;;;29.40;34.70;;;;;;4879611;29;20011;-67
2022/08/09 08:53:05;;;;;;;;;;;29.50;34.30;;;;;;4874493;29;20429;-69
2022/08/09 08:55:31;;;;;;;;;;;29.50;34.40;;;;;;4871902;29;19912;-66
2022/08/09 08:57:56;;;;;;;;;;;29.60;34.30;;;;;;4864378;29;19959;-66
2022/08/09 09:00:22;;;;;;;;;;;29.70;34.10;;;;;;4879571;29;20245;-68
2022/08/09 09:02:48;;;;;;;;;;;29.70;33.50;;;;;;4879334;29;20257;-68
2022/08/09 09:05:18;;;;;;;;;;;29.50;33.90;;;;;;4879432;29;19919;-65
2022/08/09 09:07:49;;;;;;;;;;;29.40;34.00;;;;;;4879391;29;19919;-68
2022/08/09 09:10:14;;;;;;;;;;;29.40;34.30;;;;;;4879858;29;20363;-67
2022/08/09 09:12:43;;;;;;;;;;;29.50;34.80;;;;;;4878974;29;19920;-66
2022/08/09 09:15:08;;;;;;;;;;;29.60;34.30;;;;;;4879497;29;20288;-67
2022/08/09 09:17:35;;;;;;;;;;;29.70;34.30;;;;;;4879227;29;19916;-67
2022/08/09 09:20:00;;;;;;;;;;;29.60;34.20;;;;;;4878630;29;19945;-65
2022/08/09 09:22:26;;;;;;;;;;;29.50;34.00;;;;;;4877854;29;20265;-67
2022/08/09 09:24:53;;;;;;;;;;;29.30;34.40;;;;;;4879208;29;19911;-68
2022/08/09 09:27:20;;;;;;;;;;;29.30;34.50;;;;;;4865441;29;20011;-67
2022/08/09 09:29:45;;;;;;;;;;;29.30;34.70;;;;;;4878957;29;20317;-69
2022/08/09 09:32:11;;;;;;;;;;;29.40;34.10;;;;;;4878939;29;19924;-67
2022/08/09 09:34:37;;;;;;;;;;;29.20;34.10;;;;;;4878949;29;19971;-67
2022/08/09 09:37:03;;;;;;;;;;;29.20;34.40;;;;;;4879381;29;20276;-67
2022/08/09 09:39:29;;;;;;;;;;;29.10;34.20;;;;;;4878785;29;19946;-67
2022/08/09 09:41:55;;;;;;;;;;;29.00;34.30;;;;;;4878858;29;19951;-67
2022/08/09 09:44:24;;;;;;;;;;;29.00;34.50;;;;;;4878898;29;19912;-68
2022/08/09 09:46:53;;;;;;;;;;;29.10;34.50;;;;;;4878565;29;20436;-68
2022/08/09 09:49:20;;;;;;;;;;;29.00;34.20;;;;;;4878982;29;19912;-67
2022/08/09 09:51:45;;;;;;;;;;;29.00;34.20;;;;;;4878624;29;19923;-66
2022/08/09 09:54:12;;;;;;;;;;;29.00;34.60;;;;;;4878718;29;20273;-66
2022/08/09 09:56:41;;;;;;;;;;;29.10;34.20;;;;;;4878840;29;20357;-67
2022/08/09 09:59:07;;;;;;;;;;;29.20;34.50;;;;;;4863441;29;19916;-67
2022/08/09 10:01:33;;;;;;;;;;;29.30;34.40;;;;;;4878932;29;19916;-66
2022/08/09 10:03:59;;;;;;;;;;;29.30;34.00;;;;;;4878436;29;19919;-66
2022/08/09 10:06:29;;;;;;;;;;;29.30;34.40;;;;;;4878521;29;19919;-67
2022/08/09 10:08:59;;;;;;;;;;;29.30;34.30;;;;;;4878443;29;19916;-67
2022/08/09 10:11:26;;;;;;;;;;;29.30;33.80;;;;;;4878444;29;20369;-67
2022/08/09 10:13:54;;;;;;;;;;;29.30;33.90;;;;;;4878494;29;20005;-66
2022/08/09 10:16:30;;;;;;;;;;;29.20;34.10;;;;;;4878652;29;20351;-67
2022/08/09 10:18:57;;;;;;;;;;;29.30;34.10;;;;;;4878657;29;19947;-65
2022/08/09 10:21:23;;;;;;;;;;;29.40;34.30;;;;;;4878416;29;19990;-65
2022/08/09 10:23:49;;;;;;;;;;;29.40;34.80;;;;;;4878543;29;20276;-68
2022/08/09 10:26:15;;;;;;;;;;;29.20;34.20;;;;;;4878606;29;19916;-65
2022/08/09 10:28:42;;;;;;;;;;;29.30;34.70;;;;;;4870868;29;20273;-65
2022/08/09 10:31:09;;;;;;;;;;;29.40;34.10;;;;;;4880044;29;20507;-66
2022/08/09 10:33:34;;;;;;;;;;;29.50;34.10;;;;;;4882028;29;19916;-66
2022/08/09 10:36:00;;;;;;;;;;;29.60;34.30;;;;;;4881988;29;20360;-65
2022/08/09 10:38:27;;;;;;;;;;;29.60;33.80;;;;;;4882175;29;19918;-66
2022/08/09 10:40:53;;;;;;;;;;;29.60;34.00;;;;;;4882068;29;19968;-66
2022/08/09 10:43:19;;;;;;;;;;;29.70;34.10;;;;;;4882290;29;19912;-67
2022/08/09 10:45:44;;;;;;;;;;;29.60;33.70;;;;;;4882077;29;19971;-66
2022/08/09 10:48:14;;;;;;;;;;;29.60;34.00;;;;;;4881972;29;20375;-65
2022/08/09 10:51:11;;;;;;;;;;;29.80;33.90;;;;;;4881718;29;19920;-66
2022/08/09 10:53:40;;;;;;;;;;;29.90;34.30;;;;;;4881856;29;19947;-64
2022/08/09 10:56:15;;;;;;;;;;;30.00;33.60;;;;;;4881886;29;20015;-65
2022/08/09 10:58:41;;;;;;;;;;;30.10;33.70;;;;;;4870465;29;19912;-66
2022/08/09 11:01:26;;;;;;;;;;;30.30;33.20;;;;;;4881723;29;19912;-66
2022/08/09 11:04:07;;;;;;;;;;;30.50;33.40;;;;;;4881603;29;20350;-67
2022/08/09 11:06:35;;;;;;;;;;;30.60;33.30;;;;;;4881891;29;19918;-66
2022/08/09 11:09:01;;;;;;;;;;;30.60;33.10;;;;;;4881672;29;19916;-65
2022/08/09 11:11:46;;;;;;;;;;;30.40;32.40;;;;;;4881464;29;20369;-65
2022/08/09 11:14:36;;;;;;;;;;;30.20;33.10;;;;;;4881364;29;20333;-66
2022/08/09 11:17:17;;;;;;;;;;;29.90;33.30;;;;;;4881146;29;19919;-68
2022/08/09 11:19:51;;;;;;;;;;;29.80;33.70;;;;;;4881541;29;20254;-67
2022/08/09 11:22:16;;;;;;;;;;;29.80;33.90;;;;;;4881593;29;19980;-65
2022/08/09 11:25:01;;;;;;;;;;;29.80;33.60;;;;;;4881292;29;20319;-66
2022/08/09 11:27:27;;;;;;;;;;;29.80;33.80;;;;;;4869201;29;20334;-65
2022/08/09 11:29:54;;;;;;;;;;;29.90;33.60;;;;;;4881564;29;20663;-65
2022/08/09 11:32:38;;;;;;;;;;;30.10;33.80;;;;;;4881269;29;19924;-67
2022/08/09 11:35:17;;;;;;;;;;;30.20;33.10;;;;;;4869635;29;19922;-67
2022/08/09 11:37:43;;;;;;;;;;;29.90;33.70;;;;;;4881068;29;19920;-67
2022/08/09 11:40:11;;;;;;;;;;;30.10;34.00;;;;;;4881351;29;20314;-68
2022/08/09 11:42:38;;;;;;;;;;;30.00;33.80;;;;;;4880468;29;19915;-67
2022/08/09 11:45:03;;;;;;;;;;;30.10;34.40;;;;;;4881694;29;19912;-66
2022/08/09 11:47:45;;;;;;;;;;;30.20;34.70;;;;;;4887664;29;20451;-68
2022/08/09 11:50:11;;;;;;;;;;;30.40;34.00;;;;;;4900323;29;19945;-67
2022/08/09 11:53:12;;;;;;;;;;;30.60;33.50;;;;;;4900528;29;19994;-64
2022/08/09 11:55:38;;;;;;;;;;;30.80;33.20;;;;;;4891784;29;19923;-66
2022/08/09 11:58:27;;;;;;;;;;;30.70;33.20;;;;;;4882228;29;19951;-66
2022/08/09 12:00:52;;;;;;;;;;;30.70;33.10;;;;;;4886699;29;20351;-66
2022/08/09 12:03:19;;;;;;;;;;;30.50;33.10;;;;;;4880692;29;20011;-66
2022/08/09 12:05:45;;;;;;;;;;;30.50;33.50;;;;;;4880503;29;19923;-66
2022/08/09 12:08:12;;;;;;;;;;;30.40;33.70;;;;;;4880679;29;19968;-66
2022/08/09 12:10:45;;;;;;;;;;;30.50;33.40;;;;;;4880264;29;19916;-66
2022/08/09 12:13:10;;;;;;;;;;;30.70;33.40;;;;;;4880574;29;20306;-67
2022/08/09 12:15:36;;;;;;;;;;;30.70;32.70;;;;;;4880412;29;20010;-66
2022/08/09 12:18:02;;;;;;;;;;;30.70;33.40;;;;;;4880201;29;20003;-66
2022/08/09 12:20:29;;;;;;;;;;;30.70;32.90;;;;;;4880363;29;19939;-67
2022/08/09 12:22:56;;;;;;;;;;;30.60;32.70;;;;;;4880007;29;19945;-66
2022/08/09 12:25:22;;;;;;;;;;;30.70;33.10;;;;;;4880353;29;19985;-68
2022/08/09 12:28:06;;;;;;;;;;;30.70;32.80;;;;;;4864075;29;19927;-65
2022/08/09 12:30:31;;;;;;;;;;;30.80;33.30;;;;;;4879897;29;20399;-66
2022/08/09 12:33:01;;;;;;;;;;;30.90;32.50;;;;;;4879951;29;19919;-67
2022/08/09 12:35:26;;;;;;;;;;;30.90;32.10;;;;;;4880026;29;19912;-66
2022/08/09 12:37:52;;;;;;;;;;;30.60;32.50;;;;;;4879950;29;20003;-66
2022/08/09 12:40:19;;;;;;;;;;;30.60;32.60;;;;;;4880020;29;19927;-67
2022/08/09 12:42:45;;;;;;;;;;;30.80;32.80;;;;;;4879830;29;19916;-66
2022/08/09 12:45:11;;;;;;;;;;;30.90;32.40;;;;;;4879697;29;19954;-65
2022/08/09 12:47:37;;;;;;;;;;;30.80;32.00;;;;;;4879806;29;19916;-65
2022/08/09 12:50:21;;;;;;;;;;;30.90;31.80;;;;;;4879743;29;20465;-68
2022/08/09 12:52:47;;;;;;;;;;;30.60;31.90;;;;;;4879547;29;19931;-68
2022/08/09 12:55:23;;;;;;;;;;;30.60;32.10;;;;;;4878798;29;19911;-67
2022/08/09 12:57:48;;;;;;;;;;;30.70;32.10;;;;;;4864207;29;19920;-65
2022/08/09 13:00:16;;;;;;;;;;;30.60;32.30;;;;;;4879573;29;19915;-65
2022/08/09 13:02:48;;;;;;;;;;;30.60;32.50;;;;;;4879570;29;19912;-65
2022/08/09 13:05:13;;;;;;;;;;;30.90;32.70;;;;;;4879643;29;19948;-65
2022/08/09 13:07:39;;;;;;;;;;;30.90;31.70;;;;;;4879625;29;19954;-67
2022/08/09 13:10:05;;;;;;;;;;;30.80;32.00;;;;;;4879444;29;19939;-66
2022/08/09 13:12:31;;;;;;;;;;;30.90;31.70;;;;;;4879355;29;19928;-66
2022/08/09 13:15:04;;;;;;;;;;;31.00;31.70;;;;;;4878331;29;19911;-66
2022/08/09 13:17:29;;;;;;;;;;;31.00;31.80;;;;;;4879342;29;19915;-67
2022/08/09 13:19:58;;;;;;;;;;;31.00;31.90;;;;;;4879299;29;19912;-67
2022/08/09 13:22:25;;;;;;;;;;;31.00;32.20;;;;;;4878965;29;20365;-68
2022/08/09 13:24:54;;;;;;;;;;;31.00;31.90;;;;;;4879114;29;19911;-69
2022/08/09 13:27:26;;;;;;;;;;;31.30;32.20;;;;;;4867675;29;20048;-69
2022/08/09 13:29:53;;;;;;;;;;;31.40;31.60;;;;;;4878257;29;20392;-67
2022/08/09 13:32:18;;;;;;;;;;;31.30;31.50;;;;;;4878723;29;20019;-64
2022/08/09 13:34:44;;;;;;;;;;;31.40;31.50;;;;;;4878429;29;19923;-62
2022/08/09 13:37:10;;;;;;;;;;;31.30;31.60;;;;;;4878587;29;19938;-65
2022/08/09 13:39:38;;;;;;;;;;;31.30;31.40;;;;;;4878362;29;20372;-67
2022/08/09 13:42:05;;;;;;;;;;;31.30;31.80;;;;;;4877958;29;19923;-67
2022/08/09 13:44:31;;;;;;;;;;;31.20;32.20;;;;;;4877747;29;19919;-68
2022/08/09 13:46:57;;;;;;;;;;;31.10;32.20;;;;;;4878004;29;19919;-68
2022/08/09 13:49:23;;;;;;;;;;;31.10;31.80;;;;;;4877711;29;19951;-70
2022/08/09 13:51:48;;;;;;;;;;;31.20;32.30;;;;;;4880025;29;20396;-64
2022/08/09 13:54:14;;;;;;;;;;;31.20;32.20;;;;;;4881881;29;19983;-69
2022/08/09 13:56:39;;;;;;;;;;;31.30;32.50;;;;;;4879992;29;19912;-72
2022/08/09 13:59:05;;;;;;;;;;;31.10;31.40;;;;;;4864940;29;19939;-64
2022/08/09 14:01:31;;;;;;;;;;;31.10;31.90;;;;;;4877655;29;19945;-69
2022/08/09 14:03:56;;;;;;;;;;;31.00;31.80;;;;;;4877766;29;19969;-66
2022/08/09 14:06:22;;;;;;;;;;;31.00;31.80;;;;;;4877526;29;19919;-65
2022/08/09 14:08:47;;;;;;;;;;;31.00;31.70;;;;;;4878046;29;20032;-65
2022/08/09 14:11:13;;;;;;;;;;;31.00;31.80;;;;;;4877927;29;19916;-73
2022/08/09 14:13:39;;;;;;;;;;;31.00;31.90;;;;;;4875712;29;20006;-69
2022/08/09 14:16:05;;;;;;;;;;;31.00;32.30;;;;;;4877704;29;20000;-76